sensor_id;sensor_type;location;lat;lon;timestamp;P1;durP1;ratioP1;P2;durP2;ratioP2
42140;SDS011;27809;51.864;5.646;2023-04-29T00:00:45;33.53;;;19.73;;
42140;SDS011;27809;51.864;5.646;2023-04-29T00:03:10;35.15;;;17.83;;
42140;SDS011;27809;51.864;5.646;2023-04-29T00:05:36;33.28;;;16.38;;
42140;SDS011;27809;51.864;5.646;2023-04-29T00:08:02;29.65;;;16.25;;
42140;SDS011;27809;51.864;5.646;2023-04-29T00:10:28;28.55;;;16.90;;
42140;SDS011;27809;51.864;5.646;2023-04-29T00:12:54;30.00;;;15.30;;
42140;SDS011;27809;51.864;5.646;2023-04-29T00:15:19;29.60;;;15.32;;
42140;SDS011;27809;51.864;5.646;2023-04-29T00:17:45;35.35;;;17.63;;
42140;SDS011;27809;51.864;5.646;2023-04-29T00:20:11;28.75;;;15.23;;
42140;SDS011;27809;51.864;5.646;2023-04-29T00:22:37;27.52;;;15.30;;
42140;SDS011;27809;51.864;5.646;2023-04-29T00:25:03;27.52;;;14.23;;
42140;SDS011;27809;51.864;5.646;2023-04-29T00:27:29;27.05;;;14.32;;
42140;SDS011;27809;51.864;5.646;2023-04-29T00:29:56;24.45;;;13.35;;
42140;SDS011;27809;51.864;5.646;2023-04-29T00:32:21;25.70;;;13.65;;
42140;SDS011;27809;51.864;5.646;2023-04-29T00:34:47;27.00;;;14.82;;
42140;SDS011;27809;51.864;5.646;2023-04-29T00:37:12;29.30;;;15.30;;
42140;SDS011;27809;51.864;5.646;2023-04-29T00:39:38;31.60;;;16.13;;
42140;SDS011;27809;51.864;5.646;2023-04-29T00:42:03;45.83;;;15.88;;
42140;SDS011;27809;51.864;5.646;2023-04-29T00:44:29;33.58;;;14.23;;
42140;SDS011;27809;51.864;5.646;2023-04-29T00:46:55;40.45;;;17.35;;
42140;SDS011;27809;51.864;5.646;2023-04-29T00:49:21;31.58;;;14.85;;
42140;SDS011;27809;51.864;5.646;2023-04-29T00:51:46;30.15;;;15.63;;
42140;SDS011;27809;51.864;5.646;2023-04-29T00:54:12;38.60;;;16.40;;
42140;SDS011;27809;51.864;5.646;2023-04-29T00:56:38;35.58;;;16.15;;
42140;SDS011;27809;51.864;5.646;2023-04-29T00:59:05;42.92;;;18.38;;
42140;SDS011;27809;51.864;5.646;2023-04-29T01:01:33;33.88;;;14.25;;
42140;SDS011;27809;51.864;5.646;2023-04-29T01:03:59;27.45;;;13.23;;
42140;SDS011;27809;51.864;5.646;2023-04-29T01:06:28;34.00;;;16.73;;
42140;SDS011;27809;51.864;5.646;2023-04-29T01:12:19;34.33;;;14.10;;
42140;SDS011;27809;51.864;5.646;2023-04-29T01:14:53;33.20;;;15.68;;
42140;SDS011;27809;51.864;5.646;2023-04-29T01:17:24;36.20;;;16.02;;
42140;SDS011;27809;51.864;5.646;2023-04-29T01:19:53;31.35;;;13.75;;
42140;SDS011;27809;51.864;5.646;2023-04-29T01:22:21;34.53;;;14.57;;
42140;SDS011;27809;51.864;5.646;2023-04-29T01:24:47;38.83;;;15.98;;
42140;SDS011;27809;51.864;5.646;2023-04-29T01:27:27;29.70;;;14.02;;
42140;SDS011;27809;51.864;5.646;2023-04-29T01:33:00;30.02;;;14.48;;
42140;SDS011;27809;51.864;5.646;2023-04-29T01:35:49;38.88;;;16.27;;
42140;SDS011;27809;51.864;5.646;2023-04-29T01:38:43;42.70;;;17.35;;
42140;SDS011;27809;51.864;5.646;2023-04-29T01:41:17;35.47;;;14.55;;
42140;SDS011;27809;51.864;5.646;2023-04-29T01:44:17;39.10;;;14.70;;
42140;SDS011;27809;51.864;5.646;2023-04-29T01:46:48;33.80;;;15.95;;
42140;SDS011;27809;51.864;5.646;2023-04-29T01:49:18;34.58;;;14.82;;
42140;SDS011;27809;51.864;5.646;2023-04-29T01:51:53;34.50;;;15.10;;
42140;SDS011;27809;51.864;5.646;2023-04-29T01:54:19;33.05;;;15.18;;
42140;SDS011;27809;51.864;5.646;2023-04-29T01:56:46;40.15;;;16.20;;
42140;SDS011;27809;51.864;5.646;2023-04-29T01:59:12;37.85;;;17.65;;
42140;SDS011;27809;51.864;5.646;2023-04-29T02:01:37;35.65;;;17.38;;
42140;SDS011;27809;51.864;5.646;2023-04-29T02:04:03;37.35;;;16.45;;
42140;SDS011;27809;51.864;5.646;2023-04-29T02:06:29;35.60;;;15.18;;
42140;SDS011;27809;51.864;5.646;2023-04-29T02:08:56;45.33;;;19.02;;
42140;SDS011;27809;51.864;5.646;2023-04-29T02:11:22;34.80;;;16.17;;
42140;SDS011;27809;51.864;5.646;2023-04-29T02:13:47;44.80;;;17.17;;
42140;SDS011;27809;51.864;5.646;2023-04-29T02:16:13;33.20;;;14.57;;
42140;SDS011;27809;51.864;5.646;2023-04-29T02:18:39;32.55;;;14.68;;
42140;SDS011;27809;51.864;5.646;2023-04-29T02:21:06;35.83;;;15.18;;
42140;SDS011;27809;51.864;5.646;2023-04-29T02:23:32;35.67;;;15.68;;
42140;SDS011;27809;51.864;5.646;2023-04-29T02:25:58;33.47;;;15.43;;
42140;SDS011;27809;51.864;5.646;2023-04-29T02:28:24;37.50;;;16.45;;
42140;SDS011;27809;51.864;5.646;2023-04-29T02:30:50;36.13;;;16.52;;
42140;SDS011;27809;51.864;5.646;2023-04-29T02:33:15;39.33;;;17.20;;
42140;SDS011;27809;51.864;5.646;2023-04-29T02:35:42;45.65;;;17.02;;
42140;SDS011;27809;51.864;5.646;2023-04-29T02:38:08;41.55;;;15.88;;
42140;SDS011;27809;51.864;5.646;2023-04-29T02:40:34;30.30;;;15.77;;
42140;SDS011;27809;51.864;5.646;2023-04-29T02:43:04;42.50;;;16.63;;
42140;SDS011;27809;51.864;5.646;2023-04-29T02:45:30;35.15;;;15.65;;
42140;SDS011;27809;51.864;5.646;2023-04-29T02:47:55;37.78;;;15.32;;
42140;SDS011;27809;51.864;5.646;2023-04-29T02:50:21;37.60;;;16.55;;
42140;SDS011;27809;51.864;5.646;2023-04-29T02:52:47;35.97;;;15.20;;
42140;SDS011;27809;51.864;5.646;2023-04-29T02:55:12;27.98;;;14.38;;
42140;SDS011;27809;51.864;5.646;2023-04-29T02:57:38;33.53;;;15.68;;
42140;SDS011;27809;51.864;5.646;2023-04-29T03:00:03;33.90;;;15.57;;
42140;SDS011;27809;51.864;5.646;2023-04-29T03:02:29;39.40;;;15.93;;
42140;SDS011;27809;51.864;5.646;2023-04-29T03:04:55;35.45;;;15.10;;
42140;SDS011;27809;51.864;5.646;2023-04-29T03:07:21;32.53;;;14.73;;
42140;SDS011;27809;51.864;5.646;2023-04-29T03:09:46;33.25;;;16.23;;
42140;SDS011;27809;51.864;5.646;2023-04-29T03:12:12;34.42;;;15.43;;
42140;SDS011;27809;51.864;5.646;2023-04-29T03:14:38;37.03;;;14.77;;
42140;SDS011;27809;51.864;5.646;2023-04-29T03:17:03;33.25;;;15.60;;
42140;SDS011;27809;51.864;5.646;2023-04-29T03:19:28;45.00;;;16.63;;
42140;SDS011;27809;51.864;5.646;2023-04-29T03:21:54;33.80;;;14.60;;
42140;SDS011;27809;51.864;5.646;2023-04-29T03:24:20;32.33;;;13.82;;
42140;SDS011;27809;51.864;5.646;2023-04-29T03:26:46;35.70;;;15.70;;
42140;SDS011;27809;51.864;5.646;2023-04-29T03:29:11;35.42;;;16.08;;
42140;SDS011;27809;51.864;5.646;2023-04-29T03:31:37;33.22;;;15.60;;
42140;SDS011;27809;51.864;5.646;2023-04-29T03:34:02;36.28;;;15.57;;
42140;SDS011;27809;51.864;5.646;2023-04-29T03:36:28;34.20;;;16.73;;
42140;SDS011;27809;51.864;5.646;2023-04-29T03:38:53;49.10;;;17.15;;
42140;SDS011;27809;51.864;5.646;2023-04-29T03:41:19;37.05;;;16.85;;
42140;SDS011;27809;51.864;5.646;2023-04-29T03:43:45;35.45;;;17.52;;
42140;SDS011;27809;51.864;5.646;2023-04-29T03:46:10;33.72;;;14.45;;
42140;SDS011;27809;51.864;5.646;2023-04-29T03:48:36;31.63;;;16.33;;
42140;SDS011;27809;51.864;5.646;2023-04-29T03:51:02;31.83;;;14.75;;
42140;SDS011;27809;51.864;5.646;2023-04-29T03:53:28;32.85;;;15.50;;
42140;SDS011;27809;51.864;5.646;2023-04-29T03:55:53;32.75;;;15.25;;
42140;SDS011;27809;51.864;5.646;2023-04-29T03:58:19;32.55;;;16.40;;
42140;SDS011;27809;51.864;5.646;2023-04-29T04:00:44;38.85;;;15.75;;
42140;SDS011;27809;51.864;5.646;2023-04-29T04:03:10;35.85;;;15.60;;
42140;SDS011;27809;51.864;5.646;2023-04-29T04:05:36;36.08;;;17.45;;
42140;SDS011;27809;51.864;5.646;2023-04-29T04:08:01;31.17;;;15.93;;
42140;SDS011;27809;51.864;5.646;2023-04-29T04:10:27;30.42;;;14.00;;
42140;SDS011;27809;51.864;5.646;2023-04-29T04:12:52;30.30;;;13.65;;
42140;SDS011;27809;51.864;5.646;2023-04-29T04:15:18;26.67;;;13.65;;
42140;SDS011;27809;51.864;5.646;2023-04-29T04:17:43;32.28;;;15.27;;
42140;SDS011;27809;51.864;5.646;2023-04-29T04:20:09;30.63;;;15.45;;
42140;SDS011;27809;51.864;5.646;2023-04-29T04:22:35;33.83;;;14.32;;
42140;SDS011;27809;51.864;5.646;2023-04-29T04:25:02;27.65;;;13.60;;
42140;SDS011;27809;51.864;5.646;2023-04-29T04:27:28;28.35;;;12.82;;
42140;SDS011;27809;51.864;5.646;2023-04-29T04:29:54;31.52;;;15.13;;
42140;SDS011;27809;51.864;5.646;2023-04-29T04:32:22;35.05;;;15.00;;
42140;SDS011;27809;51.864;5.646;2023-04-29T04:34:48;32.35;;;13.40;;
42140;SDS011;27809;51.864;5.646;2023-04-29T04:37:14;26.08;;;12.68;;
42140;SDS011;27809;51.864;5.646;2023-04-29T04:39:40;25.10;;;14.13;;
42140;SDS011;27809;51.864;5.646;2023-04-29T04:42:05;27.70;;;11.23;;
42140;SDS011;27809;51.864;5.646;2023-04-29T04:44:31;43.53;;;16.63;;
42140;SDS011;27809;51.864;5.646;2023-04-29T04:46:57;26.60;;;12.95;;
42140;SDS011;27809;51.864;5.646;2023-04-29T04:49:25;26.67;;;13.25;;
42140;SDS011;27809;51.864;5.646;2023-04-29T04:51:51;27.98;;;14.05;;
42140;SDS011;27809;51.864;5.646;2023-04-29T04:54:17;25.08;;;11.52;;
42140;SDS011;27809;51.864;5.646;2023-04-29T04:56:42;27.98;;;13.85;;
42140;SDS011;27809;51.864;5.646;2023-04-29T04:59:08;25.85;;;13.30;;
42140;SDS011;27809;51.864;5.646;2023-04-29T05:01:33;24.83;;;11.20;;
42140;SDS011;27809;51.864;5.646;2023-04-29T05:03:59;24.00;;;12.88;;
42140;SDS011;27809;51.864;5.646;2023-04-29T05:06:24;24.40;;;13.90;;
42140;SDS011;27809;51.864;5.646;2023-04-29T05:08:50;28.13;;;13.20;;
42140;SDS011;27809;51.864;5.646;2023-04-29T05:11:19;27.55;;;11.32;;
42140;SDS011;27809;51.864;5.646;2023-04-29T05:13:45;25.45;;;12.13;;
42140;SDS011;27809;51.864;5.646;2023-04-29T05:16:11;30.15;;;13.93;;
42140;SDS011;27809;51.864;5.646;2023-04-29T05:18:37;26.38;;;11.25;;
42140;SDS011;27809;51.864;5.646;2023-04-29T05:21:02;35.95;;;13.43;;
42140;SDS011;27809;51.864;5.646;2023-04-29T05:23:28;23.30;;;13.02;;
42140;SDS011;27809;51.864;5.646;2023-04-29T05:25:54;26.02;;;12.45;;
42140;SDS011;27809;51.864;5.646;2023-04-29T05:28:19;30.65;;;13.38;;
42140;SDS011;27809;51.864;5.646;2023-04-29T05:30:45;30.42;;;13.75;;
42140;SDS011;27809;51.864;5.646;2023-04-29T05:33:11;27.00;;;14.45;;
42140;SDS011;27809;51.864;5.646;2023-04-29T05:35:36;29.35;;;12.88;;
42140;SDS011;27809;51.864;5.646;2023-04-29T05:38:02;26.13;;;13.48;;
42140;SDS011;27809;51.864;5.646;2023-04-29T05:40:28;29.35;;;15.48;;
42140;SDS011;27809;51.864;5.646;2023-04-29T05:42:53;23.80;;;12.18;;
42140;SDS011;27809;51.864;5.646;2023-04-29T05:45:19;28.73;;;13.10;;
42140;SDS011;27809;51.864;5.646;2023-04-29T05:47:45;23.48;;;13.18;;
42140;SDS011;27809;51.864;5.646;2023-04-29T05:50:10;28.35;;;12.90;;
42140;SDS011;27809;51.864;5.646;2023-04-29T05:52:36;22.50;;;12.45;;
42140;SDS011;27809;51.864;5.646;2023-04-29T05:55:02;43.10;;;13.27;;
42140;SDS011;27809;51.864;5.646;2023-04-29T05:57:28;23.42;;;11.65;;
42140;SDS011;27809;51.864;5.646;2023-04-29T05:59:53;22.38;;;13.35;;
42140;SDS011;27809;51.864;5.646;2023-04-29T06:02:19;22.30;;;11.20;;
42140;SDS011;27809;51.864;5.646;2023-04-29T06:04:45;20.05;;;12.00;;
42140;SDS011;27809;51.864;5.646;2023-04-29T06:07:11;19.23;;;11.90;;
42140;SDS011;27809;51.864;5.646;2023-04-29T06:09:38;19.33;;;10.75;;
42140;SDS011;27809;51.864;5.646;2023-04-29T06:12:03;22.83;;;11.73;;
42140;SDS011;27809;51.864;5.646;2023-04-29T06:14:29;20.23;;;11.13;;
42140;SDS011;27809;51.864;5.646;2023-04-29T06:16:55;20.10;;;10.55;;
42140;SDS011;27809;51.864;5.646;2023-04-29T06:19:21;19.95;;;10.85;;
42140;SDS011;27809;51.864;5.646;2023-04-29T06:21:46;23.75;;;13.50;;
42140;SDS011;27809;51.864;5.646;2023-04-29T06:24:12;20.88;;;12.40;;
42140;SDS011;27809;51.864;5.646;2023-04-29T06:26:37;20.65;;;10.40;;
42140;SDS011;27809;51.864;5.646;2023-04-29T06:29:03;21.50;;;11.35;;
42140;SDS011;27809;51.864;5.646;2023-04-29T06:31:28;22.60;;;10.65;;
42140;SDS011;27809;51.864;5.646;2023-04-29T06:33:54;19.27;;;10.77;;
42140;SDS011;27809;51.864;5.646;2023-04-29T06:36:19;19.00;;;10.75;;
42140;SDS011;27809;51.864;5.646;2023-04-29T06:38:45;21.52;;;10.85;;
42140;SDS011;27809;51.864;5.646;2023-04-29T06:41:10;21.70;;;12.70;;
42140;SDS011;27809;51.864;5.646;2023-04-29T06:43:37;18.25;;;8.98;;
42140;SDS011;27809;51.864;5.646;2023-04-29T06:46:02;22.50;;;10.90;;
42140;SDS011;27809;51.864;5.646;2023-04-29T06:48:28;20.02;;;9.18;;
42140;SDS011;27809;51.864;5.646;2023-04-29T06:50:54;20.90;;;10.75;;
42140;SDS011;27809;51.864;5.646;2023-04-29T06:53:21;18.15;;;10.05;;
42140;SDS011;27809;51.864;5.646;2023-04-29T06:55:48;16.60;;;9.63;;
42140;SDS011;27809;51.864;5.646;2023-04-29T06:58:14;21.20;;;9.68;;
42140;SDS011;27809;51.864;5.646;2023-04-29T07:00:43;32.67;;;12.43;;
42140;SDS011;27809;51.864;5.646;2023-04-29T07:03:10;22.90;;;10.35;;
42140;SDS011;27809;51.864;5.646;2023-04-29T07:05:36;19.02;;;10.98;;
42140;SDS011;27809;51.864;5.646;2023-04-29T07:08:04;16.95;;;8.93;;
42140;SDS011;27809;51.864;5.646;2023-04-29T07:10:30;25.30;;;10.30;;
42140;SDS011;27809;51.864;5.646;2023-04-29T07:12:56;16.30;;;9.52;;
42140;SDS011;27809;51.864;5.646;2023-04-29T07:15:22;17.80;;;11.02;;
42140;SDS011;27809;51.864;5.646;2023-04-29T07:17:47;27.10;;;13.02;;
42140;SDS011;27809;51.864;5.646;2023-04-29T07:20:13;27.23;;;11.18;;
42140;SDS011;27809;51.864;5.646;2023-04-29T07:22:38;20.52;;;11.50;;
42140;SDS011;27809;51.864;5.646;2023-04-29T07:25:04;22.60;;;11.57;;
42140;SDS011;27809;51.864;5.646;2023-04-29T07:27:31;26.88;;;11.48;;
42140;SDS011;27809;51.864;5.646;2023-04-29T07:29:58;22.60;;;10.05;;
42140;SDS011;27809;51.864;5.646;2023-04-29T07:32:25;23.88;;;10.18;;
42140;SDS011;27809;51.864;5.646;2023-04-29T07:34:50;21.35;;;10.45;;
42140;SDS011;27809;51.864;5.646;2023-04-29T07:37:16;17.85;;;9.75;;
42140;SDS011;27809;51.864;5.646;2023-04-29T07:39:42;20.23;;;10.77;;
42140;SDS011;27809;51.864;5.646;2023-04-29T07:42:08;16.75;;;10.35;;
42140;SDS011;27809;51.864;5.646;2023-04-29T07:44:33;17.67;;;8.18;;
42140;SDS011;27809;51.864;5.646;2023-04-29T07:46:59;15.18;;;9.13;;
42140;SDS011;27809;51.864;5.646;2023-04-29T07:49:24;20.63;;;8.88;;
42140;SDS011;27809;51.864;5.646;2023-04-29T07:51:50;16.98;;;8.55;;
42140;SDS011;27809;51.864;5.646;2023-04-29T07:54:15;18.73;;;9.02;;
42140;SDS011;27809;51.864;5.646;2023-04-29T07:56:43;16.88;;;10.07;;
42140;SDS011;27809;51.864;5.646;2023-04-29T07:59:09;16.85;;;8.32;;
42140;SDS011;27809;51.864;5.646;2023-04-29T08:01:35;17.10;;;8.32;;
42140;SDS011;27809;51.864;5.646;2023-04-29T08:04:00;18.35;;;9.90;;
42140;SDS011;27809;51.864;5.646;2023-04-29T08:06:26;13.77;;;8.65;;
42140;SDS011;27809;51.864;5.646;2023-04-29T08:08:51;20.23;;;9.18;;
42140;SDS011;27809;51.864;5.646;2023-04-29T08:11:17;15.05;;;7.60;;
42140;SDS011;27809;51.864;5.646;2023-04-29T08:13:44;16.00;;;8.50;;
42140;SDS011;27809;51.864;5.646;2023-04-29T08:16:10;13.55;;;7.60;;
42140;SDS011;27809;51.864;5.646;2023-04-29T08:18:36;21.27;;;9.63;;
42140;SDS011;27809;51.864;5.646;2023-04-29T08:21:01;24.80;;;10.13;;
42140;SDS011;27809;51.864;5.646;2023-04-29T08:23:27;15.82;;;9.00;;
42140;SDS011;27809;51.864;5.646;2023-04-29T08:25:53;15.88;;;6.57;;
42140;SDS011;27809;51.864;5.646;2023-04-29T08:28:20;15.52;;;8.02;;
42140;SDS011;27809;51.864;5.646;2023-04-29T08:30:45;11.50;;;6.90;;
42140;SDS011;27809;51.864;5.646;2023-04-29T08:33:11;34.85;;;8.95;;
42140;SDS011;27809;51.864;5.646;2023-04-29T08:35:37;16.80;;;7.68;;
42140;SDS011;27809;51.864;5.646;2023-04-29T08:38:06;17.98;;;7.60;;
42140;SDS011;27809;51.864;5.646;2023-04-29T08:40:41;21.48;;;8.85;;
42140;SDS011;27809;51.864;5.646;2023-04-29T08:43:08;14.90;;;8.18;;
42140;SDS011;27809;51.864;5.646;2023-04-29T08:45:34;16.80;;;7.25;;
42140;SDS011;27809;51.864;5.646;2023-04-29T08:48:04;13.50;;;6.55;;
42140;SDS011;27809;51.864;5.646;2023-04-29T08:50:31;13.95;;;6.30;;
42140;SDS011;27809;51.864;5.646;2023-04-29T08:53:01;12.45;;;6.60;;
42140;SDS011;27809;51.864;5.646;2023-04-29T08:55:26;13.57;;;8.15;;
42140;SDS011;27809;51.864;5.646;2023-04-29T08:57:53;13.48;;;6.95;;
42140;SDS011;27809;51.864;5.646;2023-04-29T09:00:19;11.93;;;7.07;;
42140;SDS011;27809;51.864;5.646;2023-04-29T09:02:49;11.77;;;6.53;;
42140;SDS011;27809;51.864;5.646;2023-04-29T09:05:17;11.27;;;5.70;;
42140;SDS011;27809;51.864;5.646;2023-04-29T09:07:43;9.45;;;5.28;;
42140;SDS011;27809;51.864;5.646;2023-04-29T09:10:10;7.05;;;4.80;;
42140;SDS011;27809;51.864;5.646;2023-04-29T09:12:36;12.45;;;4.97;;
42140;SDS011;27809;51.864;5.646;2023-04-29T09:15:01;11.27;;;5.97;;
42140;SDS011;27809;51.864;5.646;2023-04-29T09:22:54;13.80;;;7.10;;
42140;SDS011;27809;51.864;5.646;2023-04-29T09:25:21;12.70;;;7.40;;
42140;SDS011;27809;51.864;5.646;2023-04-29T09:27:47;9.18;;;5.53;;
42140;SDS011;27809;51.864;5.646;2023-04-29T09:30:13;28.35;;;6.05;;
42140;SDS011;27809;51.864;5.646;2023-04-29T09:32:40;10.68;;;5.40;;
42140;SDS011;27809;51.864;5.646;2023-04-29T09:35:22;10.93;;;5.65;;
42140;SDS011;27809;51.864;5.646;2023-04-29T09:37:49;8.52;;;4.65;;
42140;SDS011;27809;51.864;5.646;2023-04-29T09:40:32;9.35;;;5.40;;
42140;SDS011;27809;51.864;5.646;2023-04-29T09:42:58;8.95;;;4.75;;
42140;SDS011;27809;51.864;5.646;2023-04-29T09:45:34;11.05;;;5.32;;
42140;SDS011;27809;51.864;5.646;2023-04-29T09:48:06;11.30;;;5.03;;
42140;SDS011;27809;51.864;5.646;2023-04-29T09:50:33;8.65;;;5.20;;
42140;SDS011;27809;51.864;5.646;2023-04-29T09:53:03;14.15;;;5.18;;
42140;SDS011;27809;51.864;5.646;2023-04-29T09:55:31;26.77;;;5.45;;
42140;SDS011;27809;51.864;5.646;2023-04-29T09:57:57;8.40;;;4.20;;
42140;SDS011;27809;51.864;5.646;2023-04-29T10:00:23;6.35;;;4.30;;
42140;SDS011;27809;51.864;5.646;2023-04-29T10:02:49;7.63;;;3.65;;
42140;SDS011;27809;51.864;5.646;2023-04-29T10:05:17;9.15;;;4.20;;
42140;SDS011;27809;51.864;5.646;2023-04-29T10:07:45;6.50;;;3.78;;
42140;SDS011;27809;51.864;5.646;2023-04-29T10:10:12;5.70;;;3.17;;
42140;SDS011;27809;51.864;5.646;2023-04-29T10:12:39;7.65;;;4.05;;
42140;SDS011;27809;51.864;5.646;2023-04-29T10:17:44;7.05;;;3.78;;
42140;SDS011;27809;51.864;5.646;2023-04-29T10:20:13;11.15;;;4.60;;
42140;SDS011;27809;51.864;5.646;2023-04-29T10:22:45;4.90;;;3.33;;
42140;SDS011;27809;51.864;5.646;2023-04-29T10:25:12;6.43;;;3.42;;
42140;SDS011;27809;51.864;5.646;2023-04-29T10:27:41;8.88;;;3.90;;
42140;SDS011;27809;51.864;5.646;2023-04-29T10:30:08;4.47;;;2.45;;
42140;SDS011;27809;51.864;5.646;2023-04-29T10:32:38;6.78;;;3.45;;
42140;SDS011;27809;51.864;5.646;2023-04-29T10:35:06;5.18;;;2.47;;
42140;SDS011;27809;51.864;5.646;2023-04-29T10:40:14;6.77;;;3.27;;
42140;SDS011;27809;51.864;5.646;2023-04-29T10:45:25;5.40;;;2.90;;
42140;SDS011;27809;51.864;5.646;2023-04-29T10:53:19;6.90;;;3.70;;
42140;SDS011;27809;51.864;5.646;2023-04-29T10:55:49;4.57;;;3.17;;
42140;SDS011;27809;51.864;5.646;2023-04-29T11:01:03;4.22;;;2.53;;
42140;SDS011;27809;51.864;5.646;2023-04-29T11:03:45;5.82;;;3.03;;
42140;SDS011;27809;51.864;5.646;2023-04-29T11:06:13;2.70;;;1.10;;
42140;SDS011;27809;51.864;5.646;2023-04-29T11:08:39;6.18;;;2.47;;
42140;SDS011;27809;51.864;5.646;2023-04-29T11:11:06;5.05;;;2.10;;
42140;SDS011;27809;51.864;5.646;2023-04-29T11:13:32;6.32;;;3.28;;
42140;SDS011;27809;51.864;5.646;2023-04-29T11:16:09;1.23;;;0.55;;
42140;SDS011;27809;51.864;5.646;2023-04-29T11:21:21;1.52;;;1.02;;
42140;SDS011;27809;51.864;5.646;2023-04-29T11:23:46;1.10;;;0.63;;
42140;SDS011;27809;51.864;5.646;2023-04-29T11:26:17;6.13;;;1.58;;
42140;SDS011;27809;51.864;5.646;2023-04-29T11:28:44;4.53;;;1.98;;
42140;SDS011;27809;51.864;5.646;2023-04-29T11:31:10;5.30;;;2.30;;
42140;SDS011;27809;51.864;5.646;2023-04-29T11:33:35;6.28;;;3.35;;
42140;SDS011;27809;51.864;5.646;2023-04-29T11:36:01;5.20;;;2.05;;
42140;SDS011;27809;51.864;5.646;2023-04-29T11:38:28;2.15;;;1.05;;
42140;SDS011;27809;51.864;5.646;2023-04-29T11:40:55;3.72;;;1.92;;
42140;SDS011;27809;51.864;5.646;2023-04-29T11:43:24;2.65;;;1.10;;
42140;SDS011;27809;51.864;5.646;2023-04-29T11:45:50;4.22;;;1.67;;
42140;SDS011;27809;51.864;5.646;2023-04-29T11:48:17;2.60;;;1.25;;
42140;SDS011;27809;51.864;5.646;2023-04-29T11:50:47;6.47;;;2.50;;
42140;SDS011;27809;51.864;5.646;2023-04-29T11:53:15;4.00;;;1.73;;
42140;SDS011;27809;51.864;5.646;2023-04-29T11:55:44;7.07;;;1.00;;
42140;SDS011;27809;51.864;5.646;2023-04-29T11:58:10;5.45;;;1.85;;
42140;SDS011;27809;51.864;5.646;2023-04-29T12:00:36;5.50;;;1.60;;
42140;SDS011;27809;51.864;5.646;2023-04-29T12:03:35;3.63;;;1.50;;
42140;SDS011;27809;51.864;5.646;2023-04-29T12:05:55;2.25;;;0.73;;
42140;SDS011;27809;51.864;5.646;2023-04-29T12:08:25;5.55;;;0.70;;
42140;SDS011;27809;51.864;5.646;2023-04-29T12:10:53;3.08;;;1.15;;
42140;SDS011;27809;51.864;5.646;2023-04-29T12:13:21;2.15;;;0.77;;
42140;SDS011;27809;51.864;5.646;2023-04-29T12:15:48;2.65;;;0.60;;
42140;SDS011;27809;51.864;5.646;2023-04-29T12:18:15;3.13;;;1.52;;
42140;SDS011;27809;51.864;5.646;2023-04-29T12:20:42;1.05;;;0.43;;
42140;SDS011;27809;51.864;5.646;2023-04-29T12:25:37;2.03;;;0.50;;
42140;SDS011;27809;51.864;5.646;2023-04-29T12:28:03;1.58;;;0.90;;
42140;SDS011;27809;51.864;5.646;2023-04-29T12:30:28;3.25;;;0.90;;
42140;SDS011;27809;51.864;5.646;2023-04-29T12:32:54;3.38;;;1.40;;
42140;SDS011;27809;51.864;5.646;2023-04-29T12:35:20;2.75;;;1.20;;
42140;SDS011;27809;51.864;5.646;2023-04-29T12:37:48;3.13;;;1.90;;
42140;SDS011;27809;51.864;5.646;2023-04-29T12:40:15;3.55;;;1.85;;
42140;SDS011;27809;51.864;5.646;2023-04-29T12:42:41;4.47;;;2.03;;
42140;SDS011;27809;51.864;5.646;2023-04-29T12:45:17;3.92;;;2.05;;
42140;SDS011;27809;51.864;5.646;2023-04-29T12:47:50;3.35;;;1.48;;
42140;SDS011;27809;51.864;5.646;2023-04-29T12:50:16;3.17;;;1.33;;
42140;SDS011;27809;51.864;5.646;2023-04-29T12:52:41;3.95;;;1.98;;
42140;SDS011;27809;51.864;5.646;2023-04-29T12:55:07;5.55;;;2.67;;
42140;SDS011;27809;51.864;5.646;2023-04-29T12:57:33;4.45;;;2.00;;
42140;SDS011;27809;51.864;5.646;2023-04-29T12:59:58;6.03;;;2.20;;
42140;SDS011;27809;51.864;5.646;2023-04-29T13:02:24;3.10;;;1.27;;
42140;SDS011;27809;51.864;5.646;2023-04-29T13:04:49;3.75;;;1.67;;
42140;SDS011;27809;51.864;5.646;2023-04-29T13:07:15;6.78;;;2.88;;
42140;SDS011;27809;51.864;5.646;2023-04-29T13:09:42;4.57;;;1.58;;
42140;SDS011;27809;51.864;5.646;2023-04-29T13:12:07;3.20;;;1.55;;
42140;SDS011;27809;51.864;5.646;2023-04-29T13:14:33;3.22;;;1.30;;
42140;SDS011;27809;51.864;5.646;2023-04-29T13:16:58;6.35;;;1.60;;
42140;SDS011;27809;51.864;5.646;2023-04-29T13:19:24;1.58;;;0.50;;
42140;SDS011;27809;51.864;5.646;2023-04-29T13:21:49;2.83;;;0.90;;
42140;SDS011;27809;51.864;5.646;2023-04-29T13:24:15;4.88;;;0.50;;
42140;SDS011;27809;51.864;5.646;2023-04-29T13:26:42;4.03;;;1.30;;
42140;SDS011;27809;51.864;5.646;2023-04-29T13:29:08;3.80;;;0.73;;
42140;SDS011;27809;51.864;5.646;2023-04-29T13:31:33;3.33;;;0.70;;
42140;SDS011;27809;51.864;5.646;2023-04-29T13:33:59;2.00;;;0.70;;
42140;SDS011;27809;51.864;5.646;2023-04-29T13:36:25;2.17;;;0.60;;
42140;SDS011;27809;51.864;5.646;2023-04-29T13:38:52;2.85;;;0.50;;
42140;SDS011;27809;51.864;5.646;2023-04-29T13:41:17;3.08;;;0.55;;
42140;SDS011;27809;51.864;5.646;2023-04-29T13:43:43;1.70;;;0.57;;
42140;SDS011;27809;51.864;5.646;2023-04-29T13:46:08;2.53;;;1.13;;
42140;SDS011;27809;51.864;5.646;2023-04-29T13:48:34;7.32;;;0.88;;
42140;SDS011;27809;51.864;5.646;2023-04-29T13:50:59;2.72;;;1.70;;
42140;SDS011;27809;51.864;5.646;2023-04-29T13:53:25;5.15;;;1.17;;
42140;SDS011;27809;51.864;5.646;2023-04-29T13:55:51;7.18;;;2.10;;
42140;SDS011;27809;51.864;5.646;2023-04-29T13:58:17;2.65;;;1.30;;
42140;SDS011;27809;51.864;5.646;2023-04-29T14:00:42;5.03;;;1.88;;
42140;SDS011;27809;51.864;5.646;2023-04-29T14:03:08;3.88;;;1.02;;
42140;SDS011;27809;51.864;5.646;2023-04-29T14:05:33;2.75;;;1.35;;
42140;SDS011;27809;51.864;5.646;2023-04-29T14:07:59;0.90;;;0.30;;
42140;SDS011;27809;51.864;5.646;2023-04-29T14:10:24;6.03;;;1.50;;
42140;SDS011;27809;51.864;5.646;2023-04-29T14:12:50;4.03;;;0.50;;
42140;SDS011;27809;51.864;5.646;2023-04-29T14:15:15;13.05;;;2.53;;
42140;SDS011;27809;51.864;5.646;2023-04-29T14:17:41;8.80;;;2.95;;
42140;SDS011;27809;51.864;5.646;2023-04-29T14:20:07;2.75;;;1.63;;
42140;SDS011;27809;51.864;5.646;2023-04-29T14:22:33;5.60;;;1.33;;
42140;SDS011;27809;51.864;5.646;2023-04-29T14:24:58;3.33;;;1.30;;
42140;SDS011;27809;51.864;5.646;2023-04-29T14:27:24;4.32;;;1.73;;
42140;SDS011;27809;51.864;5.646;2023-04-29T14:29:49;7.88;;;1.98;;
42140;SDS011;27809;51.864;5.646;2023-04-29T14:32:15;4.68;;;1.67;;
42140;SDS011;27809;51.864;5.646;2023-04-29T14:34:40;6.15;;;1.17;;
42140;SDS011;27809;51.864;5.646;2023-04-29T14:37:06;6.15;;;1.98;;
42140;SDS011;27809;51.864;5.646;2023-04-29T14:39:32;5.85;;;1.52;;
42140;SDS011;27809;51.864;5.646;2023-04-29T14:41:57;3.67;;;1.60;;
42140;SDS011;27809;51.864;5.646;2023-04-29T14:44:23;4.88;;;1.88;;
42140;SDS011;27809;51.864;5.646;2023-04-29T14:46:48;8.48;;;2.28;;
42140;SDS011;27809;51.864;5.646;2023-04-29T14:49:14;2.65;;;1.70;;
42140;SDS011;27809;51.864;5.646;2023-04-29T14:51:39;3.15;;;1.15;;
42140;SDS011;27809;51.864;5.646;2023-04-29T14:54:05;3.50;;;1.77;;
42140;SDS011;27809;51.864;5.646;2023-04-29T14:56:31;7.13;;;2.13;;
42140;SDS011;27809;51.864;5.646;2023-04-29T14:58:57;4.03;;;1.30;;
42140;SDS011;27809;51.864;5.646;2023-04-29T15:01:22;2.13;;;1.20;;
42140;SDS011;27809;51.864;5.646;2023-04-29T15:03:48;4.30;;;2.25;;